Terminal Aerodrome Forecast
Issued by NWS Buffalo, NY

Home | Current Version | Previous Version | Text Only | Print | Product List | Glossary On
Versions: 1 2 3 4 5 6 7 8 9 10 11 12 13 14 15 16 17 18 19 20 21 22 23 24 25
000
FTUS41 KBUF 221100
TAFART
TAF
KART 221120Z 2212/2312 03013KT P6SM OVC018
     FM221300 03013KT P6SM OVC020
     FM221600 03014G21KT P6SM OVC035
     FM230000 03012KT P6SM BKN035
     FM230400 03013G20KT P6SM VCSH OVC035
     FM230900 02013G20KT 6SM -RA OVC020=

USA.gov is the U.S. government's official web portal to all federal, state and local government web resources and services.